createdAt,value
2022-08-25T00:01:33.097Z,1.40
2022-08-25T00:04:02.144Z,1.02
2022-08-25T00:06:30.197Z,1.20
2022-08-25T00:08:59.902Z,1.60
2022-08-25T00:11:30.910Z,1.60
2022-08-25T00:14:04.233Z,1.33
2022-08-25T00:16:32.521Z,1.20
2022-08-25T00:19:05.749Z,1.35
2022-08-25T00:21:33.227Z,1.23
2022-08-25T00:24:02.450Z,1.30
2022-08-25T00:26:30.868Z,1.50
2022-08-25T00:31:38.464Z,1.63
2022-08-25T00:34:15.637Z,1.27
2022-08-25T00:36:43.904Z,1.40
2022-08-25T00:39:11.762Z,1.40
2022-08-25T00:41:42.839Z,1.45
2022-08-25T00:44:12.586Z,1.30
2022-08-25T00:46:44.688Z,1.23
2022-08-25T00:49:24.810Z,1.48
2022-08-25T00:51:58.783Z,1.60
2022-08-25T00:54:37.794Z,1.30
2022-08-25T00:57:07.291Z,1.13
2022-08-25T00:59:34.784Z,1.33
2022-08-25T01:02:02.574Z,1.03
2022-08-25T01:04:30.148Z,1.15
2022-08-25T01:06:59.021Z,1.40
2022-08-25T01:09:26.455Z,0.93
2022-08-25T01:11:53.539Z,1.15
2022-08-25T01:14:22.572Z,1.20
2022-08-25T01:16:53.601Z,1.17
2022-08-25T01:19:21.808Z,1.40
2022-08-25T01:21:51.692Z,1.20
2022-08-25T01:24:56.634Z,1.25
2022-08-25T01:27:23.757Z,1.42
2022-08-25T01:29:51.082Z,1.20
2022-08-25T01:32:18.175Z,1.02
2022-08-25T01:34:46.363Z,1.10
2022-08-25T01:37:15.849Z,1.25
2022-08-25T01:39:43.718Z,1.10
2022-08-25T01:42:54.628Z,1.00
2022-08-25T01:45:22.115Z,1.00
2022-08-25T01:47:49.122Z,0.90
2022-08-25T01:50:16.164Z,1.38
2022-08-25T01:53:04.507Z,1.35
2022-08-25T01:55:51.483Z,1.38
2022-08-25T01:58:25.251Z,1.20
2022-08-25T02:00:57.349Z,1.30
2022-08-25T02:03:25.739Z,1.50
2022-08-25T02:08:22.361Z,1.60
2022-08-25T02:10:50.970Z,1.50
2022-08-25T02:13:19.281Z,1.48
2022-08-25T02:15:54.520Z,1.38
2022-08-25T02:18:21.787Z,1.38
2022-08-25T02:20:48.922Z,1.40
2022-08-25T02:23:16.262Z,1.50
2022-08-25T02:25:44.363Z,1.60
2022-08-25T02:28:11.964Z,1.40
2022-08-25T02:30:40.805Z,1.53
2022-08-25T02:33:08.826Z,1.40
2022-08-25T02:35:36.880Z,1.60
2022-08-25T02:38:04.918Z,1.45
2022-08-25T02:40:32.221Z,1.58
2022-08-25T02:42:59.349Z,1.50
2022-08-25T02:45:26.379Z,1.50
2022-08-25T02:47:53.928Z,1.10
2022-08-25T02:50:20.902Z,1.47
2022-08-25T02:52:50.587Z,1.85
2022-08-25T02:55:18.001Z,1.50
2022-08-25T02:57:45.276Z,1.10
2022-08-25T03:00:14.841Z,1.50
2022-08-25T03:02:42.993Z,1.35
2022-08-25T03:05:12.090Z,1.33
2022-08-25T03:07:39.236Z,1.25
2022-08-25T03:10:13.962Z,1.58
2022-08-25T03:12:41.831Z,1.35
2022-08-25T03:15:12.938Z,1.10
2022-08-25T03:17:40.850Z,0.90
2022-08-25T03:20:10.965Z,1.20
2022-08-25T03:22:37.953Z,0.90
2022-08-25T03:25:24.422Z,1.13
2022-08-25T03:27:52.213Z,0.82
2022-08-25T03:30:19.825Z,0.90
2022-08-25T03:32:47.193Z,0.90
2022-08-25T03:35:14.920Z,1.13
2022-08-25T03:37:42.113Z,1.10
2022-08-25T03:40:15.289Z,1.10
2022-08-25T03:42:45.645Z,1.20
2022-08-25T03:45:16.490Z,1.40
2022-08-25T03:47:47.154Z,1.13
2022-08-25T03:50:15.093Z,0.95
2022-08-25T03:52:42.806Z,1.40
2022-08-25T03:55:12.760Z,1.20
2022-08-25T03:57:40.212Z,1.23
2022-08-25T04:00:09.613Z,1.23
2022-08-25T04:02:40.278Z,1.05
2022-08-25T04:05:08.422Z,1.20
2022-08-25T04:07:35.973Z,1.20
2022-08-25T04:10:04.101Z,1.02
2022-08-25T04:12:31.077Z,1.08
2022-08-25T04:14:58.611Z,0.80
2022-08-25T04:17:25.680Z,0.90
2022-08-25T04:19:52.752Z,1.05
2022-08-25T04:22:19.804Z,0.93
2022-08-25T04:24:46.923Z,0.98
2022-08-25T04:27:14.529Z,0.90
2022-08-25T04:29:41.740Z,1.20
2022-08-25T04:32:08.746Z,1.00
2022-08-25T04:34:35.922Z,0.80
2022-08-25T04:37:06.278Z,1.00
2022-08-25T04:39:33.945Z,0.98
2022-08-25T04:42:01.490Z,0.93
2022-08-25T04:44:29.814Z,1.07
2022-08-25T04:46:56.949Z,0.90
2022-08-25T04:49:24.015Z,0.70
2022-08-25T04:51:50.996Z,1.00
2022-08-25T04:54:21.629Z,1.02
2022-08-25T04:56:50.682Z,1.05
2022-08-25T04:59:22.028Z,1.00
2022-08-25T05:01:49.724Z,1.00
2022-08-25T05:04:27.783Z,0.80
2022-08-25T05:06:58.769Z,0.90
2022-08-25T05:09:26.623Z,0.93
2022-08-25T05:11:54.905Z,0.60
2022-08-25T05:14:26.670Z,0.60
2022-08-25T05:16:55.488Z,0.75
2022-08-25T05:19:24.120Z,0.80
2022-08-25T05:21:51.564Z,0.52
2022-08-25T05:24:18.757Z,0.77
2022-08-25T05:26:45.993Z,0.73
2022-08-25T05:29:13.387Z,0.70
2022-08-25T05:31:43.301Z,0.68
2022-08-25T05:34:12.433Z,1.00
2022-08-25T05:36:43.354Z,0.60
2022-08-25T05:39:11.361Z,1.00
2022-08-25T05:41:38.658Z,0.77
2022-08-25T05:44:05.804Z,0.70
2022-08-25T05:46:33.013Z,0.60
2022-08-25T05:49:00.323Z,0.75
2022-08-25T05:51:27.745Z,0.65
2022-08-25T05:53:54.877Z,0.60
2022-08-25T05:56:22.032Z,0.70
2022-08-25T05:58:50.251Z,0.60
2022-08-25T06:01:47.995Z,0.70
2022-08-25T06:04:18.238Z,0.73
2022-08-25T06:06:45.319Z,0.70
2022-08-25T06:09:12.581Z,0.70
2022-08-25T06:11:41.229Z,0.60
2022-08-25T06:14:09.920Z,0.70
2022-08-25T06:16:38.774Z,0.80
2022-08-25T06:19:07.481Z,0.52
2022-08-25T06:21:34.740Z,0.60
2022-08-25T06:24:02.182Z,0.52
2022-08-25T06:26:29.169Z,0.50
2022-08-25T06:28:59.199Z,0.60
2022-08-25T06:31:26.566Z,0.40
2022-08-25T06:33:53.757Z,0.57
2022-08-25T06:36:21.027Z,0.40
2022-08-25T06:38:48.450Z,0.60
2022-08-25T06:41:16.612Z,0.60
2022-08-25T06:43:48.073Z,0.60
2022-08-25T06:46:35.982Z,0.52
2022-08-25T06:49:06.108Z,0.40
2022-08-25T06:51:36.118Z,0.60
2022-08-25T06:54:04.809Z,0.47
2022-08-25T06:58:58.861Z,0.70
2022-08-25T07:01:27.453Z,0.60
2022-08-25T07:03:59.821Z,0.50
2022-08-25T07:06:28.607Z,0.40
2022-08-25T07:08:55.578Z,0.40
2022-08-25T07:11:23.377Z,0.43
2022-08-25T07:13:51.383Z,0.63
2022-08-25T07:16:20.766Z,0.43
2022-08-25T07:18:48.598Z,0.43
2022-08-25T07:21:17.417Z,0.60
2022-08-25T07:23:47.047Z,0.60
2022-08-25T07:26:39.186Z,0.50
2022-08-25T07:29:09.832Z,0.50
2022-08-25T07:31:37.450Z,0.60
2022-08-25T07:34:24.122Z,0.70
2022-08-25T07:36:53.703Z,0.70
2022-08-25T07:39:22.027Z,0.70
2022-08-25T07:41:51.938Z,0.50
2022-08-25T07:44:21.325Z,0.40
2022-08-25T07:46:50.240Z,0.60
2022-08-25T07:49:23.208Z,0.38
2022-08-25T07:52:04.113Z,0.40
2022-08-25T07:54:35.617Z,0.38
2022-08-25T07:57:07.690Z,0.50
2022-08-25T07:59:39.176Z,0.55
2022-08-25T08:02:18.141Z,0.50
2022-08-25T08:04:50.137Z,0.40
2022-08-25T08:07:43.272Z,0.55
2022-08-25T08:13:00.642Z,0.50
2022-08-25T08:15:29.620Z,0.47
2022-08-25T08:17:58.703Z,0.50
2022-08-25T08:20:28.072Z,0.40
2022-08-25T08:22:57.873Z,0.40
2022-08-25T08:25:26.641Z,0.40
2022-08-25T08:27:56.759Z,0.50
2022-08-25T08:30:25.949Z,0.57
2022-08-25T08:33:09.273Z,0.50
2022-08-25T08:35:37.229Z,0.40
2022-08-25T08:38:06.897Z,0.60
2022-08-25T08:41:14.263Z,0.52
2022-08-25T08:43:43.692Z,0.35
2022-08-25T08:46:11.258Z,0.32
2022-08-25T08:49:05.737Z,0.30
2022-08-25T08:51:42.369Z,0.40
2022-08-25T08:54:23.041Z,0.50
2022-08-25T08:57:04.101Z,0.50
2022-08-25T09:00:03.187Z,0.40
2022-08-25T09:02:50.516Z,0.43
2022-08-25T09:05:21.468Z,0.60
2022-08-25T09:07:56.765Z,0.50
2022-08-25T09:10:29.215Z,0.70
2022-08-25T09:13:16.980Z,1.00
2022-08-25T09:16:07.963Z,0.60
2022-08-25T09:18:51.069Z,0.60
2022-08-25T09:21:25.278Z,0.40
2022-08-25T09:23:52.252Z,0.60
2022-08-25T09:26:33.846Z,0.80
2022-08-25T09:29:20.920Z,0.60
2022-08-25T09:31:48.912Z,0.63
2022-08-25T09:34:28.382Z,0.60
2022-08-25T09:36:55.372Z,0.60
2022-08-25T09:39:24.141Z,0.52
2022-08-25T09:41:57.050Z,0.60
2022-08-25T09:44:33.622Z,0.50
2022-08-25T09:47:08.296Z,0.63
2022-08-25T09:49:44.600Z,0.70
2022-08-25T09:52:32.060Z,0.60
2022-08-25T09:55:07.781Z,0.60
2022-08-25T09:57:47.180Z,0.60
2022-08-25T10:00:30.725Z,0.82
2022-08-25T10:03:07.886Z,0.70
2022-08-25T10:05:41.587Z,0.70
2022-08-25T10:08:24.861Z,0.50
2022-08-25T10:10:57.558Z,0.60
2022-08-25T10:13:36.924Z,0.77
2022-08-25T10:16:17.694Z,0.82
2022-08-25T10:19:08.837Z,0.70
2022-08-25T10:21:38.639Z,0.70
2022-08-25T10:24:08.358Z,0.60
2022-08-25T10:26:54.930Z,0.70
2022-08-25T10:29:50.061Z,0.88
2022-08-25T10:32:55.379Z,0.70
2022-08-25T10:35:24.510Z,0.82
2022-08-25T10:41:05.033Z,0.77
2022-08-25T10:43:32.121Z,0.80
2022-08-25T10:46:14.236Z,0.93
2022-08-25T10:49:03.522Z,0.88
2022-08-25T10:51:42.441Z,0.70
2022-08-25T10:54:18.352Z,0.75
2022-08-25T10:57:32.006Z,0.80
2022-08-25T11:00:12.668Z,1.03
2022-08-25T11:03:05.126Z,1.20
2022-08-25T11:05:40.557Z,1.25
2022-08-25T11:08:27.142Z,1.00
2022-08-25T11:11:31.406Z,1.30
2022-08-25T11:14:11.607Z,0.90
2022-08-25T11:16:46.057Z,1.20
2022-08-25T11:19:32.739Z,1.08
2022-08-25T11:22:19.697Z,1.45
2022-08-25T11:25:09.385Z,1.30
2022-08-25T11:27:54.151Z,1.10
2022-08-25T11:30:21.969Z,1.30
2022-08-25T11:32:54.935Z,1.20
2022-08-25T11:35:42.446Z,1.13
2022-08-25T11:38:15.368Z,1.30
2022-08-25T11:40:55.629Z,1.30
2022-08-25T11:43:51.781Z,1.60
2022-08-25T11:46:59.893Z,1.52
2022-08-25T11:49:47.711Z,1.77
2022-08-25T11:55:32.075Z,1.80
2022-08-25T11:58:48.702Z,1.58
2022-08-25T12:04:43.998Z,1.70
2022-08-25T12:07:22.649Z,1.92
2022-08-25T12:09:54.115Z,1.80
2022-08-25T12:12:46.875Z,1.67
2022-08-25T12:15:26.923Z,1.50
2022-08-25T12:18:18.829Z,1.70
2022-08-25T12:20:55.430Z,1.50
2022-08-25T12:23:31.779Z,1.33
2022-08-25T12:26:15.692Z,1.20
2022-08-25T12:28:57.068Z,1.30
2022-08-25T12:31:57.316Z,1.20
2022-08-25T12:35:09.007Z,1.90
2022-08-25T12:38:02.749Z,1.58
2022-08-25T12:40:35.572Z,1.20
2022-08-25T12:43:20.432Z,1.10
2022-08-25T12:46:13.592Z,1.13
2022-08-25T12:48:55.761Z,1.35
2022-08-25T12:51:26.312Z,1.20
2022-08-25T12:54:01.349Z,1.20
2022-08-25T12:56:41.168Z,1.20
2022-08-25T12:59:22.015Z,1.30
2022-08-25T13:02:40.195Z,1.20
2022-08-25T13:05:40.232Z,1.27
2022-08-25T13:08:16.446Z,1.20
2022-08-25T13:10:58.161Z,1.10
2022-08-25T13:13:46.277Z,1.30
2022-08-25T13:21:24.801Z,1.20
2022-08-25T13:24:01.365Z,1.15
2022-08-25T13:26:48.646Z,1.05
2022-08-25T13:29:52.948Z,0.90
2022-08-25T13:32:40.594Z,1.30
2022-08-25T13:37:55.139Z,1.20
2022-08-25T13:40:27.331Z,1.00
2022-08-25T13:43:01.209Z,0.98
2022-08-25T13:45:40.940Z,1.08
2022-08-25T13:48:22.851Z,0.93
2022-08-25T13:50:52.241Z,0.85
2022-08-25T13:53:23.969Z,1.00
2022-08-25T13:56:02.242Z,1.17
2022-08-25T14:01:48.406Z,1.20
2022-08-25T14:04:32.960Z,0.93
2022-08-25T14:07:13.410Z,1.15
2022-08-25T14:09:48.554Z,0.80
2022-08-25T14:12:29.382Z,1.10
2022-08-25T14:15:03.477Z,1.30
2022-08-25T14:17:39.009Z,1.17
2022-08-25T14:20:22.073Z,1.00
2022-08-25T14:22:53.968Z,1.17
2022-08-25T14:25:20.969Z,1.10
2022-08-25T14:28:07.219Z,0.93
2022-08-25T14:30:39.388Z,1.00
2022-08-25T14:33:07.054Z,0.90
2022-08-25T14:35:34.486Z,0.80
2022-08-25T14:38:10.619Z,1.10
2022-08-25T14:40:38.679Z,0.80
2022-08-25T14:43:09.523Z,0.70
2022-08-25T14:45:40.447Z,0.60
2022-08-25T14:48:17.981Z,0.70
2022-08-25T14:50:46.260Z,0.55
2022-08-25T14:53:13.660Z,0.98
2022-08-25T14:55:40.729Z,0.50
2022-08-25T14:58:08.324Z,0.80
2022-08-25T15:00:43.392Z,0.90
2022-08-25T15:03:34.267Z,0.68
2022-08-25T15:06:02.917Z,0.80
2022-08-25T15:08:50.271Z,0.73
2022-08-25T15:11:17.840Z,0.90
2022-08-25T15:13:49.596Z,0.90
2022-08-25T15:16:34.116Z,0.75
2022-08-25T15:19:07.490Z,0.98
2022-08-25T15:21:37.958Z,1.38
2022-08-25T15:24:06.378Z,1.20
2022-08-25T15:29:12.471Z,1.30
2022-08-25T15:31:42.788Z,1.10
2022-08-25T15:34:11.630Z,1.30
2022-08-25T15:36:39.462Z,1.45
2022-08-25T15:39:07.036Z,1.13
2022-08-25T15:41:37.532Z,1.20
2022-08-25T15:44:07.729Z,0.93
2022-08-25T15:46:36.244Z,1.08
2022-08-25T15:51:31.217Z,1.00
2022-08-25T15:53:58.329Z,1.13
2022-08-25T15:56:26.395Z,1.00
2022-08-25T16:01:28.065Z,1.20
2022-08-25T16:03:57.771Z,1.60
2022-08-25T16:06:26.312Z,2.28
2022-08-25T16:11:26.703Z,2.00
2022-08-25T16:13:55.814Z,1.98
2022-08-25T16:16:25.179Z,1.90
2022-08-25T16:18:53.259Z,1.70
2022-08-25T16:21:29.057Z,1.50
2022-08-25T16:24:01.901Z,1.38
2022-08-25T16:26:31.729Z,1.35
2022-08-25T16:28:58.830Z,1.73
2022-08-25T16:31:26.021Z,2.03
2022-08-25T16:33:56.119Z,1.50
2022-08-25T16:36:27.038Z,1.70
2022-08-25T16:38:55.048Z,1.52
2022-08-25T16:41:39.243Z,1.52
2022-08-25T16:44:10.985Z,2.00
2022-08-25T16:46:40.827Z,1.83
2022-08-25T16:49:09.383Z,1.83
2022-08-25T16:54:25.061Z,1.60
2022-08-25T16:56:55.185Z,1.50
2022-08-25T16:59:23.519Z,1.20
2022-08-25T17:01:52.522Z,1.30
2022-08-25T17:04:20.288Z,2.05
2022-08-25T17:06:51.705Z,1.90
2022-08-25T17:09:23.810Z,1.63
2022-08-25T17:11:56.685Z,1.48
2022-08-25T17:14:24.035Z,1.40
2022-08-25T17:16:54.624Z,1.48
2022-08-25T17:19:23.835Z,1.33
2022-08-25T17:21:51.329Z,2.00
2022-08-25T17:24:18.473Z,1.83
2022-08-25T17:26:49.778Z,2.00
2022-08-25T17:29:19.803Z,1.55
2022-08-25T17:31:48.538Z,1.50
2022-08-25T17:34:16.916Z,1.45
2022-08-25T17:36:48.587Z,0.95
2022-08-25T17:39:18.233Z,1.10
2022-08-25T17:41:46.047Z,1.10
2022-08-25T17:44:13.763Z,1.23
2022-08-25T17:46:47.032Z,1.20
2022-08-25T17:49:17.146Z,1.15
2022-08-25T17:51:45.240Z,1.05
2022-08-25T17:54:12.777Z,1.17
2022-08-25T17:56:39.751Z,1.20
2022-08-25T17:59:07.593Z,1.15
2022-08-25T18:01:40.473Z,1.00
2022-08-25T18:04:17.475Z,1.00
2022-08-25T18:06:48.400Z,0.93
2022-08-25T18:09:17.485Z,0.80
2022-08-25T18:11:45.768Z,1.00
2022-08-25T18:14:14.458Z,0.90
2022-08-25T18:16:42.148Z,0.73
2022-08-25T18:19:10.779Z,0.93
2022-08-25T18:24:06.326Z,0.90
2022-08-25T18:29:01.944Z,0.90
2022-08-25T18:31:29.101Z,1.13
2022-08-25T18:33:56.417Z,0.60
2022-08-25T18:36:23.844Z,0.90
2022-08-25T18:39:09.542Z,0.90
2022-08-25T18:41:41.088Z,0.90
2022-08-25T18:44:10.927Z,0.60
2022-08-25T18:46:39.913Z,0.88
2022-08-25T18:49:07.068Z,0.95
2022-08-25T18:54:03.602Z,1.10
2022-08-25T18:56:31.006Z,1.48
2022-08-25T18:58:58.273Z,1.20
2022-08-25T19:01:25.657Z,1.42
2022-08-25T19:03:52.813Z,1.40
2022-08-25T19:06:20.665Z,1.35
2022-08-25T19:08:48.646Z,1.15
2022-08-25T19:11:17.000Z,1.37
2022-08-25T19:13:49.278Z,1.10
2022-08-25T19:16:20.366Z,1.00
2022-08-25T19:18:48.960Z,1.55
2022-08-25T19:21:22.768Z,1.10
2022-08-25T19:23:51.304Z,1.50
2022-08-25T19:26:19.765Z,1.30
2022-08-25T19:28:49.014Z,1.30
2022-08-25T19:31:22.334Z,1.10
2022-08-25T19:33:52.511Z,1.67
2022-08-25T19:36:23.009Z,1.85
2022-08-25T19:38:52.458Z,1.60
2022-08-25T19:41:20.578Z,1.48
2022-08-25T19:43:56.368Z,1.77
2022-08-25T19:46:35.536Z,1.58
2022-08-25T19:49:26.320Z,2.00
2022-08-25T19:51:55.995Z,1.45
2022-08-25T19:54:33.174Z,1.67
2022-08-25T19:57:02.619Z,1.40
2022-08-25T19:59:34.267Z,1.38
2022-08-25T20:02:09.474Z,1.83
2022-08-25T20:04:37.932Z,2.10
2022-08-25T20:07:06.977Z,1.30
2022-08-25T20:09:41.154Z,1.42
2022-08-25T20:12:10.502Z,1.20
2022-08-25T20:14:38.263Z,1.30
2022-08-25T20:17:14.679Z,1.13
2022-08-25T20:19:55.969Z,1.20
2022-08-25T20:22:26.571Z,1.13
2022-08-25T20:24:57.985Z,1.30
2022-08-25T20:27:37.895Z,1.30
2022-08-25T20:30:08.713Z,1.00
2022-08-25T20:32:36.864Z,0.80
2022-08-25T20:35:10.066Z,0.98
2022-08-25T20:37:41.968Z,1.00
2022-08-25T20:40:10.459Z,0.95
2022-08-25T20:42:40.560Z,1.10
2022-08-25T20:45:09.275Z,0.95
2022-08-25T20:50:06.892Z,1.10
2022-08-25T20:52:34.806Z,0.73
2022-08-25T20:55:03.033Z,1.00
2022-08-25T20:57:30.194Z,1.05
2022-08-25T20:59:58.049Z,1.17
2022-08-25T21:02:26.485Z,1.23
2022-08-25T21:07:24.817Z,1.25
2022-08-25T21:09:52.342Z,1.30
2022-08-25T21:12:21.027Z,1.50
2022-08-25T21:14:48.528Z,1.55
2022-08-25T21:17:15.961Z,1.38
2022-08-25T21:22:19.097Z,1.25
2022-08-25T21:24:46.138Z,1.20
2022-08-25T21:27:13.629Z,1.20
2022-08-25T21:29:54.414Z,1.33
2022-08-25T21:32:23.461Z,1.45
2022-08-25T21:34:59.244Z,1.05
2022-08-25T21:37:27.005Z,0.90
2022-08-25T21:39:54.479Z,1.00
2022-08-25T21:42:23.942Z,0.73
2022-08-25T21:44:52.593Z,0.90
2022-08-25T21:47:21.273Z,0.90
2022-08-25T21:49:49.899Z,1.00
2022-08-25T21:52:17.790Z,1.10
2022-08-25T21:54:45.194Z,0.95
2022-08-25T21:57:12.798Z,0.70
2022-08-25T21:59:41.185Z,0.80
2022-08-25T22:02:11.363Z,0.80
2022-08-25T22:04:39.539Z,1.23
2022-08-25T22:07:08.001Z,1.02
2022-08-25T22:09:35.899Z,1.10
2022-08-25T22:12:03.951Z,1.10
2022-08-25T22:14:32.342Z,0.80
2022-08-25T22:16:59.623Z,1.20
2022-08-25T22:19:26.836Z,1.35
2022-08-25T22:21:55.033Z,1.08
2022-08-25T22:24:23.030Z,1.00
2022-08-25T22:26:56.402Z,1.05
2022-08-25T22:29:25.179Z,1.00
2022-08-25T22:31:57.819Z,1.00
2022-08-25T22:34:30.596Z,1.23
2022-08-25T22:37:03.718Z,1.15
2022-08-25T22:39:32.239Z,1.33
2022-08-25T22:42:02.753Z,1.50
2022-08-25T22:44:31.298Z,1.20
2022-08-25T22:49:29.022Z,1.50
2022-08-25T22:51:56.230Z,0.90
2022-08-25T22:54:23.922Z,0.90
2022-08-25T22:56:53.227Z,0.90
2022-08-25T22:59:20.545Z,1.43
2022-08-25T23:01:49.777Z,1.08
2022-08-25T23:04:17.716Z,0.98
2022-08-25T23:06:46.491Z,1.10
2022-08-25T23:09:14.286Z,1.20
2022-08-25T23:11:42.630Z,1.38
2022-08-25T23:14:11.318Z,1.15
2022-08-25T23:16:43.086Z,1.15
2022-08-25T23:19:14.754Z,1.25
2022-08-25T23:22:01.821Z,1.48
2022-08-25T23:24:30.662Z,1.40
2022-08-25T23:27:03.825Z,1.42
2022-08-25T23:29:34.252Z,1.15
2022-08-25T23:32:02.075Z,0.90
2022-08-25T23:34:29.889Z,1.33
2022-08-25T23:36:57.696Z,1.08
2022-08-25T23:39:24.984Z,1.00
2022-08-25T23:41:52.136Z,1.20
2022-08-25T23:44:20.499Z,1.15
2022-08-25T23:46:48.594Z,1.10
2022-08-25T23:49:18.474Z,1.10
2022-08-25T23:51:48.784Z,1.10
2022-08-25T23:54:19.390Z,1.02
2022-08-25T23:56:52.348Z,1.08
2022-08-25T23:59:24.187Z,1.10
